Time;durP1;ratioP1;P1;durP2;ratioP2;P2;SDS_P1;SDS_P2;PMS_P1;PMS_P2;Temp;Humidity;BMP_temperature;BMP_pressure;BME280_temperature;BME280_humidity;BME280_pressure;Samples;Min_cycle;Max_cycle;Signal;HPM_P1;HPM_P2
2023/08/17 10:09:57;;;;;;;2.58;1.15;;;;;;;;;;6365450;22;20089;-86
2023/08/17 10:12:27;;;;;;;2.53;1.00;;;;;;;;;;6364911;22;20044;-92
2023/08/17 10:14:56;;;;;;;2.20;1.05;;;;;;;;;;6365563;22;20339;-90
2023/08/17 10:17:26;;;;;;;1.27;1.05;;;;;;;;;;6367767;22;20044;-95
2023/08/17 10:19:58;;;;;;;2.92;1.02;;;;;;;;;;6339666;22;20015;-93
2023/08/17 10:22:29;;;;;;;4.10;1.02;;;;;;;;;;6367809;22;20325;-83
2023/08/17 10:24:56;;;;;;;1.00;0.90;;;;;;;;;;6364902;22;20045;-89
2023/08/17 10:27:22;;;;;;;2.65;1.40;;;;;;;;;;6364835;22;20014;-87
2023/08/17 10:29:48;;;;;;;1.73;1.10;;;;;;;;;;6365494;22;20056;-83
2023/08/17 10:32:15;;;;;;;3.40;1.25;;;;;;;;;;6365925;22;20025;-84
2023/08/17 10:34:41;;;;;;;2.65;1.20;;;;;;;;;;6368217;22;20017;-85
2023/08/17 10:37:07;;;;;;;2.10;1.20;;;;;;;;;;6364370;22;20313;-83
2023/08/17 10:39:34;;;;;;;2.17;1.23;;;;;;;;;;6365518;22;20007;-84
2023/08/17 10:42:01;;;;;;;1.95;1.20;;;;;;;;;;6363382;22;20070;-84
2023/08/17 10:44:46;;;;;;;3.25;1.13;;;;;;;;;;6364250;22;20043;-87
2023/08/17 10:47:38;;;;;;;1.67;1.00;;;;;;;;;;6366170;22;20331;-84
2023/08/17 10:50:21;;;;;;;3.13;1.35;;;;;;;;;;6360111;22;20006;-86
2023/08/17 10:52:49;;;;;;;3.03;1.25;;;;;;;;;;6367493;22;20017;-84
2023/08/17 10:55:15;;;;;;;1.77;1.20;;;;;;;;;;6338078;22;20397;-93
2023/08/17 10:57:44;;;;;;;2.13;0.90;;;;;;;;;;6341418;22;20022;-92
2023/08/17 11:00:26;;;;;;;2.28;1.38;;;;;;;;;;6340634;22;20062;-93
2023/08/17 11:02:54;;;;;;;3.00;1.20;;;;;;;;;;6368298;22;20014;-90
2023/08/17 11:05:39;;;;;;;1.88;1.13;;;;;;;;;;6340708;22;20049;-90
2023/08/17 11:08:05;;;;;;;2.38;1.25;;;;;;;;;;6368331;22;20014;-93
2023/08/17 11:10:32;;;;;;;1.88;1.10;;;;;;;;;;6369402;22;20006;-91
2023/08/17 11:13:02;;;;;;;1.90;1.30;;;;;;;;;;6369055;22;20050;-89
2023/08/17 11:15:44;;;;;;;2.50;1.63;;;;;;;;;;6369461;22;20708;-91
2023/08/17 11:18:11;;;;;;;1.90;1.50;;;;;;;;;;6369899;22;20012;-91
2023/08/17 11:20:38;;;;;;;1.58;1.33;;;;;;;;;;6369654;22;20010;-91
2023/08/17 11:23:05;;;;;;;2.92;1.55;;;;;;;;;;6368570;22;20085;-94
2023/08/17 11:25:32;;;;;;;3.45;2.08;;;;;;;;;;6372725;22;20014;-87
2023/08/17 11:27:58;;;;;;;3.38;1.70;;;;;;;;;;6349565;22;20036;-94
2023/08/17 11:30:25;;;;;;;3.47;1.67;;;;;;;;;;6372304;22;20010;-92
2023/08/17 11:32:51;;;;;;;2.60;1.30;;;;;;;;;;6370237;22;20488;-92
2023/08/17 11:35:18;;;;;;;2.20;1.42;;;;;;;;;;6368522;22;20010;-90
2023/08/17 11:37:44;;;;;;;2.88;1.33;;;;;;;;;;6370871;22;20015;-88
2023/08/17 11:40:14;;;;;;;4.55;1.80;;;;;;;;;;6368228;22;20055;-93
2023/08/17 11:42:40;;;;;;;2.13;1.45;;;;;;;;;;6371908;22;20018;-94
2023/08/17 11:45:10;;;;;;;3.10;1.70;;;;;;;;;;6370055;22;20018;-91
2023/08/17 11:47:36;;;;;;;1.75;1.50;;;;;;;;;;6372152;22;20068;-89
2023/08/17 11:50:04;;;;;;;2.22;1.80;;;;;;;;;;6368928;22;20010;-89
2023/08/17 11:52:32;;;;;;;3.30;1.50;;;;;;;;;;6372577;22;20022;-90
2023/08/17 11:54:59;;;;;;;3.72;1.73;;;;;;;;;;6342355;22;20014;-89
2023/08/17 11:57:25;;;;;;;3.28;1.65;;;;;;;;;;6367370;22;20335;-90
2023/08/17 11:59:55;;;;;;;2.60;1.63;;;;;;;;;;6341461;22;20022;-93
2023/08/17 12:02:22;;;;;;;1.88;1.65;;;;;;;;;;6368588;22;20007;-94
2023/08/17 12:04:48;;;;;;;4.28;1.70;;;;;;;;;;6340588;22;20022;-89
2023/08/17 12:07:16;;;;;;;2.42;1.63;;;;;;;;;;6366343;22;20010;-88
2023/08/17 12:09:42;;;;;;;1.92;1.70;;;;;;;;;;6366979;22;20143;-93
2023/08/17 12:12:10;;;;;;;1.98;1.77;;;;;;;;;;6369632;22;20416;-93
2023/08/17 12:14:36;;;;;;;3.80;2.00;;;;;;;;;;6370573;22;20014;-85
2023/08/17 12:17:02;;;;;;;3.50;1.85;;;;;;;;;;6371622;22;20021;-91
2023/08/17 12:19:30;;;;;;;4.07;1.75;;;;;;;;;;6369081;22;20018;-91
2023/08/17 12:21:57;;;;;;;3.47;1.70;;;;;;;;;;6371403;22;20044;-88
2023/08/17 12:24:26;;;;;;;2.88;1.73;;;;;;;;;;6369120;22;20043;-93
2023/08/17 12:26:53;;;;;;;2.88;1.85;;;;;;;;;;6369913;22;20095;-93
2023/08/17 12:29:19;;;;;;;2.88;2.20;;;;;;;;;;6344531;22;20014;-92
2023/08/17 12:31:45;;;;;;;2.63;2.00;;;;;;;;;;6372158;22;20049;-92
2023/08/17 12:34:11;;;;;;;3.22;2.15;;;;;;;;;;6372863;22;20014;-92
2023/08/17 12:36:37;;;;;;;3.33;2.03;;;;;;;;;;6371777;22;20466;-93
2023/08/17 12:39:03;;;;;;;2.85;2.50;;;;;;;;;;6373452;22;20018;-95
2023/08/17 12:41:30;;;;;;;2.70;1.88;;;;;;;;;;6372790;22;20014;-90
2023/08/17 12:43:59;;;;;;;2.88;2.00;;;;;;;;;;6374782;22;20014;-93
2023/08/17 12:46:25;;;;;;;2.28;1.83;;;;;;;;;;6371927;22;20006;-91
2023/08/17 12:48:51;;;;;;;3.20;1.90;;;;;;;;;;6371083;22;20388;-89
2023/08/17 12:51:17;;;;;;;2.50;2.00;;;;;;;;;;6367518;22;20397;-91
2023/08/17 12:53:43;;;;;;;4.68;2.00;;;;;;;;;;6368812;22;20015;-96
2023/08/17 12:56:10;;;;;;;2.28;1.98;;;;;;;;;;6368729;22;20037;-91
2023/08/17 12:58:35;;;;;;;2.05;1.80;;;;;;;;;;6313668;22;20072;-92
2023/08/17 13:01:02;;;;;;;4.00;1.83;;;;;;;;;;6340850;22;20447;-95
2023/08/17 13:03:28;;;;;;;3.45;1.98;;;;;;;;;;6340490;22;20014;-95
2023/08/17 13:05:55;;;;;;;6.30;2.88;;;;;;;;;;6342078;22;20128;-92
2023/08/17 13:08:21;;;;;;;2.95;2.10;;;;;;;;;;6369973;22;20015;-90
2023/08/17 13:10:47;;;;;;;3.50;2.10;;;;;;;;;;6342048;22;20087;-94
2023/08/17 13:13:13;;;;;;;2.30;2.00;;;;;;;;;;6371268;22;20022;-94
2023/08/17 13:15:39;;;;;;;3.35;1.83;;;;;;;;;;6343395;22;20470;-94
2023/08/17 13:18:05;;;;;;;3.00;1.73;;;;;;;;;;6343373;22;20022;-92
2023/08/17 13:20:31;;;;;;;3.67;2.00;;;;;;;;;;6340476;22;20021;-93
2023/08/17 13:22:57;;;;;;;3.83;1.92;;;;;;;;;;6341865;22;20012;-88
2023/08/17 13:25:23;;;;;;;4.47;2.00;;;;;;;;;;6367656;22;20006;-90
2023/08/17 13:27:49;;;;;;;3.20;2.10;;;;;;;;;;6373863;22;20016;-95
2023/08/17 13:30:15;;;;;;;2.15;1.88;;;;;;;;;;6380229;22;20090;-92
2023/08/17 13:32:41;;;;;;;3.40;1.85;;;;;;;;;;6342763;22;20068;-90
2023/08/17 13:35:07;;;;;;;2.63;1.50;;;;;;;;;;6366159;22;20018;-89
2023/08/17 13:37:34;;;;;;;2.63;1.60;;;;;;;;;;6367441;22;20046;-92
2023/08/17 13:40:00;;;;;;;7.10;1.90;;;;;;;;;;6337400;22;20097;-93
2023/08/17 13:42:26;;;;;;;7.00;2.50;;;;;;;;;;6366659;22;20048;-93
2023/08/17 13:44:52;;;;;;;2.97;2.10;;;;;;;;;;6368150;22;20331;-95
2023/08/17 13:47:18;;;;;;;3.92;2.00;;;;;;;;;;6367100;22;20006;-93
2023/08/17 13:49:45;;;;;;;4.03;2.70;;;;;;;;;;6341026;22;20049;-92
2023/08/17 13:52:11;;;;;;;2.88;1.80;;;;;;;;;;6368624;22;20059;-93
2023/08/17 13:54:37;;;;;;;3.65;1.88;;;;;;;;;;6367589;22;20019;-91
2023/08/17 13:57:03;;;;;;;3.55;1.92;;;;;;;;;;6367061;22;20018;-88
2023/08/17 13:59:29;;;;;;;3.10;2.15;;;;;;;;;;6368481;22;20014;-96
2023/08/17 14:01:56;;;;;;;4.88;2.17;;;;;;;;;;6366313;22;20357;-91
2023/08/17 14:04:22;;;;;;;2.78;2.03;;;;;;;;;;6365719;22;20011;-90
2023/08/17 14:06:48;;;;;;;2.65;2.45;;;;;;;;;;6366591;22;20006;-89
2023/08/17 14:09:14;;;;;;;4.15;2.50;;;;;;;;;;6365702;22;20022;-92
2023/08/17 14:11:40;;;;;;;5.00;2.25;;;;;;;;;;6365072;22;20022;-90
2023/08/17 14:14:06;;;;;;;3.38;1.95;;;;;;;;;;6364910;22;20006;-87
2023/08/17 14:16:32;;;;;;;2.45;2.08;;;;;;;;;;6365673;22;20081;-85
2023/08/17 14:18:58;;;;;;;3.13;2.72;;;;;;;;;;6364736;22;20014;-89
2023/08/17 14:21:24;;;;;;;3.88;2.55;;;;;;;;;;6367613;22;20058;-87
2023/08/17 14:23:50;;;;;;;3.75;2.30;;;;;;;;;;6313567;22;20438;-88
2023/08/17 14:26:16;;;;;;;3.65;2.33;;;;;;;;;;6338620;22;20423;-89
2023/08/17 14:28:42;;;;;;;2.65;2.10;;;;;;;;;;6367613;22;20011;-86
2023/08/17 14:31:08;;;;;;;3.85;2.50;;;;;;;;;;6366754;22;20438;-87
2023/08/17 14:33:34;;;;;;;4.20;2.53;;;;;;;;;;6338282;22;20018;-86
2023/08/17 14:36:00;;;;;;;2.92;2.67;;;;;;;;;;6367294;22;20085;-88
2023/08/17 14:38:26;;;;;;;3.78;2.97;;;;;;;;;;6367237;22;20131;-87
2023/08/17 14:40:52;;;;;;;3.17;2.88;;;;;;;;;;6367681;22;20021;-83
2023/08/17 14:43:18;;;;;;;2.78;2.35;;;;;;;;;;6338825;22;20014;-86
2023/08/17 14:45:44;;;;;;;3.03;2.83;;;;;;;;;;6367013;22;20040;-83
2023/08/17 14:48:10;;;;;;;2.75;2.55;;;;;;;;;;6365351;22;20019;-83
2023/08/17 14:50:37;;;;;;;3.38;2.58;;;;;;;;;;6339496;22;20038;-88
2023/08/17 14:53:03;;;;;;;2.58;2.38;;;;;;;;;;6367371;22;20032;-88
2023/08/17 14:55:30;;;;;;;5.35;2.80;;;;;;;;;;6339368;22;20014;-88
2023/08/17 14:57:56;;;;;;;3.10;2.42;;;;;;;;;;6366935;22;20068;-86
2023/08/17 15:00:23;;;;;;;2.80;2.30;;;;;;;;;;6367793;22;20068;-86
2023/08/17 15:02:49;;;;;;;2.92;2.47;;;;;;;;;;6366498;22;20011;-86
2023/08/17 15:05:15;;;;;;;4.97;3.20;;;;;;;;;;6338808;22;20102;-87
2023/08/17 15:07:41;;;;;;;3.75;2.75;;;;;;;;;;6367994;22;20046;-86
2023/08/17 15:10:07;;;;;;;4.75;2.53;;;;;;;;;;6339044;22;20019;-86
2023/08/17 15:12:33;;;;;;;3.17;2.67;;;;;;;;;;6368096;22;20059;-87
2023/08/17 15:14:59;;;;;;;2.75;2.28;;;;;;;;;;6367121;22;20052;-86
2023/08/17 15:17:25;;;;;;;3.15;2.63;;;;;;;;;;6366134;22;20121;-85
2023/08/17 15:19:51;;;;;;;3.42;2.25;;;;;;;;;;6366954;22;20014;-87
2023/08/17 15:22:17;;;;;;;3.45;2.47;;;;;;;;;;6365025;22;20010;-85
2023/08/17 15:24:44;;;;;;;3.72;2.58;;;;;;;;;;6338391;22;20015;-82
2023/08/17 15:27:10;;;;;;;3.85;2.45;;;;;;;;;;6366136;22;20006;-87
2023/08/17 15:29:36;;;;;;;4.45;2.75;;;;;;;;;;6366241;22;20006;-85
2023/08/17 15:32:02;;;;;;;3.55;3.03;;;;;;;;;;6339775;22;20085;-84
2023/08/17 15:34:28;;;;;;;3.50;2.58;;;;;;;;;;6372842;22;20018;-88
2023/08/17 15:36:55;;;;;;;3.33;2.53;;;;;;;;;;6339086;22;20011;-90
2023/08/17 15:39:21;;;;;;;3.67;2.45;;;;;;;;;;6367474;22;20085;-93
2023/08/17 15:41:47;;;;;;;3.03;2.38;;;;;;;;;;6369468;22;20049;-89
2023/08/17 15:44:13;;;;;;;3.13;2.67;;;;;;;;;;6367565;22;20010;-89
2023/08/17 15:46:39;;;;;;;3.30;3.00;;;;;;;;;;6367879;22;20011;-92
2023/08/17 15:49:05;;;;;;;2.75;2.55;;;;;;;;;;6368474;22;20010;-88
2023/08/17 15:51:31;;;;;;;4.28;3.10;;;;;;;;;;6337534;22;20014;-83
2023/08/17 15:53:57;;;;;;;3.67;2.72;;;;;;;;;;6365557;22;20018;-85
2023/08/17 15:56:23;;;;;;;3.55;2.70;;;;;;;;;;6365649;22;20114;-87
2023/08/17 15:58:49;;;;;;;3.50;2.55;;;;;;;;;;6365996;22;20316;-83
2023/08/17 16:01:15;;;;;;;2.88;2.38;;;;;;;;;;6366393;22;20029;-86
2023/08/17 16:03:41;;;;;;;3.78;2.58;;;;;;;;;;6366587;22;20014;-89
2023/08/17 16:06:08;;;;;;;4.15;2.63;;;;;;;;;;6337127;22;20458;-87
2023/08/17 16:08:34;;;;;;;2.95;2.75;;;;;;;;;;6367077;22;20384;-84
2023/08/17 16:11:00;;;;;;;2.70;2.35;;;;;;;;;;6366112;22;20042;-85
2023/08/17 16:13:27;;;;;;;4.55;2.67;;;;;;;;;;6364002;22;20026;-92
2023/08/17 16:15:53;;;;;;;3.38;2.88;;;;;;;;;;6365300;22;20021;-90
2023/08/17 16:18:19;;;;;;;5.55;2.55;;;;;;;;;;6368022;22;20302;-87
2023/08/17 16:20:45;;;;;;;2.53;2.33;;;;;;;;;;6337011;22;20339;-90
2023/08/17 16:23:11;;;;;;;3.67;2.13;;;;;;;;;;6309414;22;20010;-85
2023/08/17 16:25:37;;;;;;;3.83;2.33;;;;;;;;;;6365871;22;20338;-86
2023/08/17 16:28:03;;;;;;;2.60;2.40;;;;;;;;;;6337373;22;20034;-86
2023/08/17 16:30:29;;;;;;;2.85;2.28;;;;;;;;;;6366878;22;20024;-87
2023/08/17 16:32:55;;;;;;;3.63;2.50;;;;;;;;;;6366410;22;20125;-89
2023/08/17 16:35:21;;;;;;;2.42;2.15;;;;;;;;;;6365492;22;20060;-89
2023/08/17 16:37:47;;;;;;;2.97;2.67;;;;;;;;;;6364817;22;20053;-92
2023/08/17 16:40:13;;;;;;;2.45;2.25;;;;;;;;;;6336346;22;20014;-86
2023/08/17 16:42:39;;;;;;;3.03;2.72;;;;;;;;;;6365505;22;20414;-87
2023/08/17 16:45:05;;;;;;;2.95;2.65;;;;;;;;;;6337622;22;20021;-85
2023/08/17 16:47:32;;;;;;;3.33;2.63;;;;;;;;;;6365368;22;20015;-85
2023/08/17 16:49:58;;;;;;;2.97;2.67;;;;;;;;;;6364276;22;20454;-90
2023/08/17 16:52:24;;;;;;;3.88;2.92;;;;;;;;;;6364510;22;20081;-88
2023/08/17 16:54:50;;;;;;;3.33;2.25;;;;;;;;;;6367030;22;20094;-87
2023/08/17 16:57:16;;;;;;;5.45;2.60;;;;;;;;;;6363073;22;20052;-88
2023/08/17 16:59:43;;;;;;;3.20;2.53;;;;;;;;;;6365775;22;20014;-86
2023/08/17 17:02:09;;;;;;;4.50;2.33;;;;;;;;;;6365364;22;20018;-93
2023/08/17 17:04:35;;;;;;;3.10;2.22;;;;;;;;;;6338514;22;20045;-86
2023/08/17 17:07:02;;;;;;;4.10;2.40;;;;;;;;;;6337792;22;20021;-89
2023/08/17 17:09:28;;;;;;;2.70;2.42;;;;;;;;;;6365845;22;20089;-88
2023/08/17 17:11:54;;;;;;;4.32;2.33;;;;;;;;;;6364890;22;20087;-87
2023/08/17 17:14:20;;;;;;;2.85;2.17;;;;;;;;;;6364435;22;20073;-92
2023/08/17 17:16:46;;;;;;;2.95;2.20;;;;;;;;;;6366939;22;20087;-91
2023/08/17 17:19:12;;;;;;;2.88;2.50;;;;;;;;;;6364898;22;20394;-89
2023/08/17 17:21:38;;;;;;;5.28;2.35;;;;;;;;;;6364959;22;20045;-93
2023/08/17 17:24:04;;;;;;;2.78;2.13;;;;;;;;;;6364787;22;20241;-91
2023/08/17 17:26:31;;;;;;;3.00;2.30;;;;;;;;;;6364226;22;20059;-88
2023/08/17 17:28:57;;;;;;;3.88;2.67;;;;;;;;;;6365363;22;20435;-93
2023/08/17 17:31:23;;;;;;;2.33;1.77;;;;;;;;;;6367134;22;20006;-88
2023/08/17 17:33:49;;;;;;;3.92;2.53;;;;;;;;;;6339195;22;20334;-88
2023/08/17 17:36:15;;;;;;;2.70;2.45;;;;;;;;;;6369283;22;20042;-90
2023/08/17 17:38:42;;;;;;;2.10;1.90;;;;;;;;;;6346500;22;20032;-88
2023/08/17 17:41:08;;;;;;;2.75;2.25;;;;;;;;;;6368817;22;20041;-91
2023/08/17 17:43:34;;;;;;;3.80;2.40;;;;;;;;;;6367883;22;20034;-93
2023/08/17 17:46:00;;;;;;;3.47;2.30;;;;;;;;;;6338625;22;20022;-89
2023/08/17 17:48:26;;;;;;;2.03;1.92;;;;;;;;;;6366733;22;20067;-93
2023/08/17 17:50:52;;;;;;;2.92;2.53;;;;;;;;;;6366784;22;20007;-88
2023/08/17 17:53:18;;;;;;;2.92;2.15;;;;;;;;;;6365284;22;20373;-87
2023/08/17 17:55:44;;;;;;;4.22;2.63;;;;;;;;;;6366113;22;20014;-88
2023/08/17 17:58:10;;;;;;;4.57;2.47;;;;;;;;;;6365956;22;20017;-90
2023/08/17 18:00:36;;;;;;;5.03;2.30;;;;;;;;;;6366045;22;20010;-92
2023/08/17 18:03:13;;;;;;;2.53;2.20;;;;;;;;;;6365591;22;20542;-92
2023/08/17 18:05:43;;;;;;;2.40;2.20;;;;;;;;;;6366867;22;20104;-87
2023/08/17 18:08:10;;;;;;;2.80;2.00;;;;;;;;;;6336792;22;20014;-89
2023/08/17 18:10:42;;;;;;;3.75;2.08;;;;;;;;;;6336563;22;20083;-89
2023/08/17 18:13:08;;;;;;;2.22;2.03;;;;;;;;;;6364830;22;20428;-88
2023/08/17 18:15:35;;;;;;;3.95;2.47;;;;;;;;;;6337385;22;20389;-88
2023/08/17 18:18:02;;;;;;;3.35;2.15;;;;;;;;;;6365611;22;20054;-90
2023/08/17 18:20:28;;;;;;;3.05;1.95;;;;;;;;;;6365415;22;20014;-88
2023/08/17 18:22:54;;;;;;;3.42;2.05;;;;;;;;;;6337251;22;20015;-90
2023/08/17 18:25:21;;;;;;;2.67;2.10;;;;;;;;;;6365820;22;20011;-89
2023/08/17 18:27:47;;;;;;;2.50;2.20;;;;;;;;;;6365052;22;20330;-95
2023/08/17 18:30:13;;;;;;;4.70;2.60;;;;;;;;;;6338437;22;20014;-87
2023/08/17 18:32:39;;;;;;;6.43;2.40;;;;;;;;;;6336428;22;20040;-85
2023/08/17 18:35:06;;;;;;;4.50;2.40;;;;;;;;;;6365771;22;20045;-87
2023/08/17 18:37:32;;;;;;;2.72;2.30;;;;;;;;;;6311828;22;20033;-87
2023/08/17 18:39:58;;;;;;;3.58;2.15;;;;;;;;;;6364525;22;20335;-89
2023/08/17 18:42:26;;;;;;;4.22;1.90;;;;;;;;;;6366377;22;20022;-89
2023/08/17 18:44:54;;;;;;;2.10;1.70;;;;;;;;;;6366236;22;20048;-87
2023/08/17 18:47:21;;;;;;;1.75;1.30;;;;;;;;;;6365526;22;20010;-88
2023/08/17 18:49:47;;;;;;;1.55;1.40;;;;;;;;;;6366305;22;20067;-89
2023/08/17 18:52:13;;;;;;;1.70;1.13;;;;;;;;;;6365043;22;20055;-85
2023/08/17 18:54:39;;;;;;;1.30;1.20;;;;;;;;;;6365137;22;20481;-91
2023/08/17 18:57:05;;;;;;;1.58;1.13;;;;;;;;;;6366347;22;20014;-91
2023/08/17 18:59:31;;;;;;;1.70;1.08;;;;;;;;;;6366051;22;20095;-91
2023/08/17 19:01:57;;;;;;;3.38;1.38;;;;;;;;;;6364998;22;20063;-93
2023/08/17 19:04:24;;;;;;;1.30;0.90;;;;;;;;;;6365375;22;20022;-86
2023/08/17 19:06:50;;;;;;;1.17;0.70;;;;;;;;;;6367256;22;20014;-88
2023/08/17 19:09:16;;;;;;;1.95;0.93;;;;;;;;;;6365103;22;20007;-87
2023/08/17 19:11:42;;;;;;;1.75;0.80;;;;;;;;;;6307859;22;20014;-87
2023/08/17 19:14:08;;;;;;;1.15;0.90;;;;;;;;;;6333766;22;20045;-88
2023/08/17 19:16:34;;;;;;;0.80;0.65;;;;;;;;;;6336249;22;20300;-89
2023/08/17 19:19:01;;;;;;;0.75;0.75;;;;;;;;;;6306209;22;20093;-86
2023/08/17 19:21:27;;;;;;;1.23;0.80;;;;;;;;;;6335238;22;20364;-88
2023/08/17 19:23:53;;;;;;;1.08;0.70;;;;;;;;;;6306771;22;20034;-86
2023/08/17 19:26:19;;;;;;;1.70;0.88;;;;;;;;;;6306599;22;20382;-86
2023/08/17 19:28:45;;;;;;;0.90;0.80;;;;;;;;;;6282826;22;20011;-85
2023/08/17 19:31:11;;;;;;;0.88;0.75;;;;;;;;;;6335514;22;20072;-87
2023/08/17 19:33:37;;;;;;;1.25;0.75;;;;;;;;;;6304635;22;20018;-88
2023/08/17 19:36:03;;;;;;;0.75;0.70;;;;;;;;;;6306311;22;20022;-89
2023/08/17 19:38:29;;;;;;;1.73;0.75;;;;;;;;;;6334868;22;20076;-90
2023/08/17 19:40:55;;;;;;;1.60;0.98;;;;;;;;;;6333653;22;20017;-88
2023/08/17 19:43:22;;;;;;;1.67;0.80;;;;;;;;;;6340033;22;20018;-86
2023/08/17 19:45:48;;;;;;;2.22;2.05;;;;;;;;;;6339897;22;20042;-87
2023/08/17 19:48:14;;;;;;;0.98;0.63;;;;;;;;;;6334749;22;20015;-86
2023/08/17 19:50:40;;;;;;;1.92;0.80;;;;;;;;;;6333739;22;20017;-89
2023/08/17 19:53:06;;;;;;;2.55;1.30;;;;;;;;;;6334741;22;20327;-86
2023/08/17 19:55:32;;;;;;;1.42;1.13;;;;;;;;;;6334842;22;20042;-85
2023/08/17 19:57:58;;;;;;;1.58;0.98;;;;;;;;;;6334951;22;20015;-89
2023/08/17 20:00:24;;;;;;;2.40;1.10;;;;;;;;;;6307485;22;20072;-87
2023/08/17 20:02:50;;;;;;;1.33;1.10;;;;;;;;;;6307815;22;20090;-88
2023/08/17 20:05:16;;;;;;;1.40;1.10;;;;;;;;;;6307159;22;20041;-89
2023/08/17 20:07:42;;;;;;;2.60;1.20;;;;;;;;;;6333062;22;20443;-88
2023/08/17 20:10:09;;;;;;;2.08;1.10;;;;;;;;;;6346166;22;20159;-87
2023/08/17 20:12:35;;;;;;;2.10;1.08;;;;;;;;;;6338836;22;20018;-95
2023/08/17 20:15:03;;;;;;;2.03;1.38;;;;;;;;;;6341502;22;20018;-93
2023/08/17 20:17:29;;;;;;;2.22;1.42;;;;;;;;;;6368074;22;20026;-91
2023/08/17 20:19:55;;;;;;;3.47;1.17;;;;;;;;;;6337089;22;20035;-90
2023/08/17 20:22:21;;;;;;;1.95;0.98;;;;;;;;;;6366436;22;20015;-91
2023/08/17 20:24:47;;;;;;;1.98;1.20;;;;;;;;;;6367708;22;20089;-92
2023/08/17 20:27:14;;;;;;;4.38;1.48;;;;;;;;;;6339869;22;20010;-91
2023/08/17 20:29:40;;;;;;;0.90;0.85;;;;;;;;;;6368114;22;20086;-90
2023/08/17 20:32:06;;;;;;;3.50;1.27;;;;;;;;;;6368202;22;20090;-92
2023/08/17 20:34:32;;;;;;;2.75;1.20;;;;;;;;;;6340893;22;20021;-88
2023/08/17 20:36:58;;;;;;;2.83;1.33;;;;;;;;;;6367695;22;20331;-93
2023/08/17 20:39:24;;;;;;;1.90;1.08;;;;;;;;;;6367569;22;20052;-95
2023/08/17 20:41:50;;;;;;;2.97;1.15;;;;;;;;;;6340028;22;20010;-92
2023/08/17 20:44:17;;;;;;;2.28;1.20;;;;;;;;;;6340074;22;20011;-94
2023/08/17 20:46:43;;;;;;;2.00;1.20;;;;;;;;;;6369212;22;20010;-93
2023/08/17 20:49:09;;;;;;;2.08;1.15;;;;;;;;;;6339447;22;20019;-91
2023/08/17 20:51:35;;;;;;;2.88;1.08;;;;;;;;;;6369324;22;20010;-96
2023/08/17 20:54:02;;;;;;;1.08;0.93;;;;;;;;;;6367899;22;20011;-93
2023/08/17 20:56:28;;;;;;;1.45;1.02;;;;;;;;;;6369356;22;20331;-89
2023/08/17 20:58:54;;;;;;;0.95;0.77;;;;;;;;;;6340614;22;20018;-92
2023/08/17 21:01:20;;;;;;;1.85;1.10;;;;;;;;;;6367796;22;20014;-93
2023/08/17 21:03:46;;;;;;;1.80;1.20;;;;;;;;;;6366991;22;20011;-94
2023/08/17 21:06:12;;;;;;;2.15;0.95;;;;;;;;;;6341508;22;20317;-96
2023/08/17 21:08:39;;;;;;;1.25;0.90;;;;;;;;;;6369901;22;20007;-95
2023/08/17 21:11:05;;;;;;;3.90;1.33;;;;;;;;;;6334550;22;20057;-92
2023/08/17 21:13:32;;;;;;;1.35;1.13;;;;;;;;;;6334466;22;20068;-92
2023/08/17 21:16:08;;;;;;;2.20;1.83;;;;;;;;;;6339758;22;20011;-96
2023/08/17 21:18:34;;;;;;;2.60;1.20;;;;;;;;;;6336853;22;20022;-93
2023/08/17 21:21:01;;;;;;;1.95;1.00;;;;;;;;;;6338679;22;20041;-93
2023/08/17 21:23:30;;;;;;;0.82;0.80;;;;;;;;;;6336787;22;20022;-95
2023/08/17 21:25:56;;;;;;;1.02;0.85;;;;;;;;;;6334520;22;20019;-93
2023/08/17 21:28:22;;;;;;;1.83;1.00;;;;;;;;;;6339074;22;20055;-92
2023/08/17 21:30:48;;;;;;;1.58;0.90;;;;;;;;;;6337778;22;20043;-90
2023/08/17 21:33:14;;;;;;;1.02;0.82;;;;;;;;;;6334947;22;20019;-93
2023/08/17 21:35:40;;;;;;;1.85;1.05;;;;;;;;;;6338268;22;20018;-90
2023/08/17 21:38:06;;;;;;;0.98;0.88;;;;;;;;;;6335406;22;20007;-90
2023/08/17 21:40:32;;;;;;;2.30;1.10;;;;;;;;;;6335987;22;20032;-89
2023/08/17 21:42:58;;;;;;;3.25;1.20;;;;;;;;;;6332593;22;20011;-90
2023/08/17 21:45:24;;;;;;;3.80;1.30;;;;;;;;;;6335383;22;20021;-90
2023/08/17 21:47:50;;;;;;;1.77;1.05;;;;;;;;;;6337462;22;20034;-93
2023/08/17 21:50:17;;;;;;;2.85;1.00;;;;;;;;;;6343069;22;20432;-89
2023/08/17 21:52:43;;;;;;;2.22;1.20;;;;;;;;;;6337869;22;20011;-92
2023/08/17 21:55:09;;;;;;;1.30;1.00;;;;;;;;;;6335618;22;20026;-89
2023/08/17 21:57:35;;;;;;;2.33;1.00;;;;;;;;;;6335615;22;20010;-92
2023/08/17 22:00:01;;;;;;;1.63;1.10;;;;;;;;;;6334007;22;20068;-90
2023/08/17 22:02:27;;;;;;;3.55;1.20;;;;;;;;;;6334078;22;20050;-93
2023/08/17 22:04:53;;;;;;;3.58;1.20;;;;;;;;;;6335776;22;20007;-93
2023/08/17 22:07:19;;;;;;;1.95;0.88;;;;;;;;;;6335482;22;20034;-91
2023/08/17 22:09:45;;;;;;;2.03;1.10;;;;;;;;;;6338713;22;20007;-93
2023/08/17 22:12:11;;;;;;;2.67;1.10;;;;;;;;;;6366956;22;20380;-94
2023/08/17 22:14:37;;;;;;;2.55;1.10;;;;;;;;;;6340202;22;20022;-92
2023/08/17 22:17:03;;;;;;;1.45;0.88;;;;;;;;;;6366339;22;20368;-95
2023/08/17 22:19:29;;;;;;;1.98;1.13;;;;;;;;;;6367771;22;20021;-92
2023/08/17 22:21:55;;;;;;;1.25;1.10;;;;;;;;;;6340251;22;20021;-94
2023/08/17 22:24:21;;;;;;;1.40;1.00;;;;;;;;;;6368163;22;20022;-93
2023/08/17 22:26:48;;;;;;;2.45;1.20;;;;;;;;;;6340781;22;20021;-95
2023/08/17 22:29:14;;;;;;;2.85;1.20;;;;;;;;;;6368658;22;20022;-94
2023/08/17 22:31:42;;;;;;;2.03;1.00;;;;;;;;;;6340219;22;20105;-93
2023/08/17 22:34:09;;;;;;;3.00;0.98;;;;;;;;;;6340260;22;20022;-93
2023/08/17 22:36:35;;;;;;;3.85;1.08;;;;;;;;;;6340169;22;20014;-92
2023/08/17 22:39:02;;;;;;;2.10;1.08;;;;;;;;;;6368012;22;20441;-94
2023/08/17 22:41:28;;;;;;;3.08;1.25;;;;;;;;;;6340972;22;20497;-93
2023/08/17 22:43:53;;;;;;;2.38;1.02;;;;;;;;;;6370027;22;20415;-94
2023/08/17 22:46:19;;;;;;;1.95;1.38;;;;;;;;;;6340966;22;20053;-91
2023/08/17 22:48:46;;;;;;;1.60;1.08;;;;;;;;;;6369977;22;20037;-91
2023/08/17 22:51:16;;;;;;;2.45;1.27;;;;;;;;;;6369635;22;20014;-94
2023/08/17 22:53:42;;;;;;;2.67;1.20;;;;;;;;;;6343127;22;20317;-93
2023/08/17 22:56:08;;;;;;;1.98;1.20;;;;;;;;;;6370245;22;20014;-91
2023/08/17 22:58:34;;;;;;;4.70;1.08;;;;;;;;;;6369799;22;20014;-94
2023/08/17 23:01:00;;;;;;;1.70;1.50;;;;;;;;;;6369700;22;20348;-93
2023/08/17 23:03:26;;;;;;;3.03;1.02;;;;;;;;;;6368609;22;20056;-93
2023/08/17 23:05:53;;;;;;;2.67;1.15;;;;;;;;;;6341209;22;20018;-93
2023/08/17 23:08:19;;;;;;;2.08;1.33;;;;;;;;;;6367317;22;20014;-91
2023/08/17 23:10:46;;;;;;;3.20;1.30;;;;;;;;;;6341617;22;20025;-93
2023/08/17 23:13:12;;;;;;;3.65;1.33;;;;;;;;;;6341766;22;20022;-93
2023/08/17 23:15:38;;;;;;;8.98;1.73;;;;;;;;;;6367955;22;20010;-94
2023/08/17 23:18:04;;;;;;;2.97;1.35;;;;;;;;;;6369090;22;20362;-96
2023/08/17 23:20:30;;;;;;;3.65;1.50;;;;;;;;;;6367639;22;20017;-91
2023/08/17 23:22:57;;;;;;;3.33;1.65;;;;;;;;;;6339740;22;20015;-94
2023/08/17 23:25:24;;;;;;;3.15;1.40;;;;;;;;;;6368477;22;20013;-92
2023/08/17 23:27:51;;;;;;;2.88;1.45;;;;;;;;;;6368530;22;20049;-93
2023/08/17 23:30:17;;;;;;;3.85;1.27;;;;;;;;;;6339001;22;20447;-95
2023/08/17 23:32:43;;;;;;;1.73;1.20;;;;;;;;;;6342478;22;20336;-95
2023/08/17 23:35:09;;;;;;;3.13;1.38;;;;;;;;;;6366499;22;20021;-93
2023/08/17 23:37:35;;;;;;;2.83;1.10;;;;;;;;;;6369014;22;20010;-92
2023/08/17 23:40:01;;;;;;;2.17;1.00;;;;;;;;;;6367955;22;20514;-94
2023/08/17 23:42:27;;;;;;;2.15;1.10;;;;;;;;;;6368224;22;20078;-94
2023/08/17 23:44:53;;;;;;;1.63;1.17;;;;;;;;;;6367554;22;20006;-93
2023/08/17 23:47:19;;;;;;;2.50;1.35;;;;;;;;;;6339888;22;20104;-94
2023/08/17 23:49:45;;;;;;;2.35;1.20;;;;;;;;;;6369922;22;20016;-94
2023/08/17 23:52:11;;;;;;;1.30;0.90;;;;;;;;;;6344074;22;20010;-89
2023/08/17 23:54:37;;;;;;;2.33;1.20;;;;;;;;;;6341772;22;20072;-93
2023/08/17 23:57:03;;;;;;;1.92;0.75;;;;;;;;;;6367445;22;20014;-92
2023/08/17 23:59:29;;;;;;;1.42;1.10;;;;;;;;;;6367140;22;20018;-94
